Airfield :
LOGIN :

Register | Disclaimer

   EN    FR    IT 

 










Legend :    VFR   Marginal VFR   IFR   Intensive IFR   Very Intensive IFR
Visi :
Ceiling :
>= 8 km
>= 3000ft
5 to 8 km
1000 to 3000 ft
1500m to 5 km
500 to 1000 ft
800 to 1500m
200 to 500 ft
< 800m
< 200 ft
Symbols :   Thunderstorms  Fog  Heavy snow  Heavy precipitations  Wind > 20 kt
SIGMETs :     Misc.  Thunderstorms  Icing  Turbulence  Mountain Waves  Volcanic Ashes






- Airport Elevation : 39 ft


ETNH - Hohn AB

CURRENT METAR :
  • 221620Z 26026G38KT 9999 FEW030 BKN160 08/02 Q1007 BLU

EXPIRED METARs :
  • 221520Z 26027G40KT 9999 SCT020 BKN160 08/04 Q1006 BLU
  • 221420Z 25020G30KT 9999 FEW015 BKN080 09/05 Q1004 BLU

TAF AMD TAF ETNH
Valid from the 22 at 12:00 until the 23 at 00:00 UTC


221350Z 2212/2224 25025G40KT 9999 NSW SCT020 BKN070
TEMPO 2212/2217 25030G50KT 4000 RADZ SCT010 BKN020CB
BECMG 2217/2219 26020G30KT 9999 NSW SCT010 BKN090
TEMPO 2217/2224 27025G35KT 4000 SHRA SCT010 BKN020CB BY ETGL



MET'MAP, your aeronautical weather chart ! - Copyright ORBIFLY December 2007 - Disclaimer

ORBIFLY MET'MAP TEAM :

Programming & Development : Alexandra Zaïnal
Concept & original design : Baudouin d'Aumeries
Assistance for programming : Marc-Olivier Méhu
Technical & hardware support : Manuel Goepfert

Contact : metmap@orbifly.com




SOURCES & CREDITS :

   NOAA